Time;durP1;ratioP1;P1;durP2;ratioP2;P2;SDS_P1;SDS_P2;PMS_P1;PMS_P2;Temp;Humidity;BMP_temperature;BMP_pressure;BME280_temperature;BME280_humidity;BME280_pressure;Samples;Min_cycle;Max_cycle;Signal;HPM_P1;HPM_P2
2023/07/25 00:00:35;;;;;;;2.38;1.55;;;;;;;;;;5076701;28;20441;-58
2023/07/25 00:03:01;;;;;;;2.40;1.25;;;;;;;;;;5076016;28;20012;-58
2023/07/25 00:05:26;;;;;;;2.38;1.40;;;;;;;;;;5076026;28;20025;-58
2023/07/25 00:07:52;;;;;;;2.20;1.30;;;;;;;;;;5075985;28;20405;-58
2023/07/25 00:10:19;;;;;;;2.60;1.88;;;;;;;;;;5075759;28;20021;-58
2023/07/25 00:12:45;;;;;;;3.65;1.98;;;;;;;;;;5076386;28;20069;-58
2023/07/25 00:15:11;;;;;;;2.85;2.03;;;;;;;;;;5076004;28;20479;-58
2023/07/25 00:17:37;;;;;;;2.05;1.13;;;;;;;;;;5075280;28;20102;-58
2023/07/25 00:20:04;;;;;;;2.83;1.85;;;;;;;;;;5076351;28;20056;-58
2023/07/25 00:22:30;;;;;;;2.80;1.65;;;;;;;;;;5075993;28;20078;-58
2023/07/25 00:24:56;;;;;;;2.40;1.60;;;;;;;;;;5075441;28;20485;-58
2023/07/25 00:27:21;;;;;;;2.58;1.70;;;;;;;;;;5075512;28;20032;-58
2023/07/25 00:29:51;;;;;;;1.67;1.17;;;;;;;;;;5075875;28;20406;-58
2023/07/25 00:32:17;;;;;;;2.72;1.67;;;;;;;;;;5076091;28;20028;-58
2023/07/25 00:34:43;;;;;;;2.08;1.33;;;;;;;;;;5075497;28;20016;-58
2023/07/25 00:37:09;;;;;;;3.10;1.98;;;;;;;;;;5075188;28;20049;-58
2023/07/25 00:39:35;;;;;;;2.47;1.45;;;;;;;;;;5075705;28;20024;-58
2023/07/25 00:42:01;;;;;;;3.38;1.77;;;;;;;;;;5075354;28;20428;-58
2023/07/25 00:44:27;;;;;;;1.95;1.40;;;;;;;;;;5075272;28;20415;-58
2023/07/25 00:46:53;;;;;;;3.45;2.05;;;;;;;;;;5074941;28;20024;-58
2023/07/25 00:49:18;;;;;;;3.40;2.28;;;;;;;;;;5075063;28;20024;-58
2023/07/25 00:51:44;;;;;;;2.38;1.58;;;;;;;;;;5075406;28;20170;-58
2023/07/25 00:54:10;;;;;;;2.38;1.60;;;;;;;;;;5075228;28;20421;-58
2023/07/25 00:56:36;;;;;;;3.95;2.10;;;;;;;;;;5075454;28;20123;-58
2023/07/25 00:59:02;;;;;;;2.85;1.70;;;;;;;;;;5075378;28;20465;-58
2023/07/25 01:01:28;;;;;;;2.80;1.58;;;;;;;;;;5074944;28;20454;-58
2023/07/25 01:03:55;;;;;;;2.20;1.40;;;;;;;;;;5075391;28;20024;-58
2023/07/25 01:06:21;;;;;;;2.10;1.50;;;;;;;;;;5075049;28;20458;-58
2023/07/25 01:08:48;;;;;;;2.33;1.60;;;;;;;;;;5075143;28;20111;-58
2023/07/25 01:11:14;;;;;;;3.47;1.92;;;;;;;;;;5075246;28;20047;-60
2023/07/25 01:13:40;;;;;;;2.97;1.50;;;;;;;;;;5074730;28;20466;-59
2023/07/25 01:16:08;;;;;;;3.03;1.75;;;;;;;;;;5075149;28;20393;-58
2023/07/25 01:18:34;;;;;;;5.10;1.50;;;;;;;;;;5075324;28;20029;-58
2023/07/25 01:21:00;;;;;;;2.25;1.40;;;;;;;;;;5074759;28;20020;-59
2023/07/25 01:23:27;;;;;;;2.70;1.65;;;;;;;;;;5074463;28;20029;-58
2023/07/25 01:25:53;;;;;;;2.15;1.30;;;;;;;;;;5074061;28;20017;-58
2023/07/25 01:28:19;;;;;;;2.88;1.75;;;;;;;;;;5073225;28;20039;-58
2023/07/25 01:30:45;;;;;;;1.90;1.23;;;;;;;;;;5074344;28;20066;-59
2023/07/25 01:33:11;;;;;;;2.72;1.90;;;;;;;;;;5074029;28;20017;-58
2023/07/25 01:35:37;;;;;;;2.75;1.90;;;;;;;;;;5074255;28;20447;-58
2023/07/25 01:38:03;;;;;;;3.42;1.80;;;;;;;;;;5074577;28;20532;-58
2023/07/25 01:40:29;;;;;;;2.50;1.65;;;;;;;;;;5074724;28;20048;-58
2023/07/25 01:42:54;;;;;;;2.45;1.30;;;;;;;;;;5074075;28;20020;-58
2023/07/25 01:45:20;;;;;;;3.33;1.67;;;;;;;;;;5074153;28;20020;-58
2023/07/25 01:47:46;;;;;;;3.03;1.65;;;;;;;;;;5074306;28;20094;-58
2023/07/25 01:50:12;;;;;;;3.08;1.50;;;;;;;;;;5074277;28;20028;-58
2023/07/25 01:52:38;;;;;;;2.70;1.45;;;;;;;;;;5074009;28;20025;-58
2023/07/25 01:55:04;;;;;;;2.63;1.95;;;;;;;;;;5073569;28;20021;-58
2023/07/25 01:57:30;;;;;;;3.38;1.60;;;;;;;;;;5074150;28;20033;-58
2023/07/25 01:59:57;;;;;;;2.28;1.58;;;;;;;;;;5074148;28;20031;-58
2023/07/25 02:02:23;;;;;;;2.50;1.70;;;;;;;;;;5073811;28;20112;-58
2023/07/25 02:04:49;;;;;;;2.80;1.65;;;;;;;;;;5073518;28;20036;-59
2023/07/25 02:07:15;;;;;;;3.83;2.05;;;;;;;;;;5074011;28;20034;-58
2023/07/25 02:09:41;;;;;;;2.17;1.48;;;;;;;;;;5073745;28;20020;-58
2023/07/25 02:12:07;;;;;;;3.13;1.73;;;;;;;;;;5073702;28;20027;-58
2023/07/25 02:14:33;;;;;;;3.33;2.40;;;;;;;;;;5073914;28;20021;-58
2023/07/25 02:16:59;;;;;;;3.42;1.98;;;;;;;;;;5073464;28;20043;-58
2023/07/25 02:19:25;;;;;;;2.67;1.58;;;;;;;;;;5074458;28;20494;-58
2023/07/25 02:21:51;;;;;;;2.30;1.65;;;;;;;;;;5073528;28;20021;-58
2023/07/25 02:24:17;;;;;;;2.15;1.45;;;;;;;;;;5074278;28;20342;-58
2023/07/25 02:26:43;;;;;;;3.53;1.85;;;;;;;;;;5073440;28;20450;-58
2023/07/25 02:29:09;;;;;;;2.72;1.75;;;;;;;;;;5074583;28;20358;-59
2023/07/25 02:31:35;;;;;;;3.00;1.88;;;;;;;;;;5073990;28;20039;-58
2023/07/25 02:34:01;;;;;;;3.10;1.98;;;;;;;;;;5073715;28;20070;-58
2023/07/25 02:36:27;;;;;;;2.60;1.80;;;;;;;;;;5073032;28;20135;-59
2023/07/25 02:38:53;;;;;;;4.18;2.13;;;;;;;;;;5072829;28;20123;-58
2023/07/25 02:41:19;;;;;;;3.72;2.25;;;;;;;;;;5073909;28;20016;-59
2023/07/25 02:43:45;;;;;;;3.13;2.17;;;;;;;;;;5073418;28;20039;-58
2023/07/25 02:46:11;;;;;;;2.92;1.92;;;;;;;;;;5073629;28;20347;-58
2023/07/25 02:48:37;;;;;;;2.47;1.73;;;;;;;;;;5073588;28;20028;-58
2023/07/25 02:51:03;;;;;;;3.58;1.73;;;;;;;;;;5073294;28;20351;-58
2023/07/25 02:53:29;;;;;;;3.80;2.33;;;;;;;;;;5073610;28;20028;-58
2023/07/25 02:55:55;;;;;;;4.45;1.70;;;;;;;;;;5073319;28;20024;-58
2023/07/25 02:58:21;;;;;;;1.90;1.30;;;;;;;;;;5073732;28;20032;-58
2023/07/25 03:00:48;;;;;;;3.60;2.28;;;;;;;;;;5073745;28;20031;-58
2023/07/25 03:03:14;;;;;;;4.82;2.10;;;;;;;;;;5073139;28;20032;-58
2023/07/25 03:05:40;;;;;;;3.28;1.60;;;;;;;;;;5073980;28;20028;-58
2023/07/25 03:08:06;;;;;;;2.67;1.60;;;;;;;;;;5073497;28;20476;-58
2023/07/25 03:10:32;;;;;;;3.83;1.83;;;;;;;;;;5073163;28;20025;-58
2023/07/25 03:12:58;;;;;;;2.50;1.80;;;;;;;;;;5073038;28;20028;-58
2023/07/25 03:15:24;;;;;;;3.05;2.08;;;;;;;;;;5073109;28;20021;-58
2023/07/25 03:17:50;;;;;;;3.60;2.38;;;;;;;;;;5073021;28;20037;-58
2023/07/25 03:20:16;;;;;;;2.70;2.08;;;;;;;;;;5073619;28;20024;-59
2023/07/25 03:22:42;;;;;;;3.03;2.17;;;;;;;;;;5073036;28;20023;-58
2023/07/25 03:25:09;;;;;;;4.40;2.42;;;;;;;;;;5072680;28;20580;-58
2023/07/25 03:27:35;;;;;;;3.10;2.33;;;;;;;;;;5073278;28;20024;-58
2023/07/25 03:30:01;;;;;;;3.53;2.42;;;;;;;;;;5073218;28;20024;-58
2023/07/25 03:32:27;;;;;;;3.47;2.40;;;;;;;;;;5073490;28;20020;-58
2023/07/25 03:34:53;;;;;;;3.80;2.13;;;;;;;;;;5072891;28;20036;-59
2023/07/25 03:37:18;;;;;;;2.83;2.20;;;;;;;;;;5072718;28;20040;-58
2023/07/25 03:39:44;;;;;;;2.53;1.83;;;;;;;;;;5073523;28;20027;-58
2023/07/25 03:42:10;;;;;;;3.33;2.20;;;;;;;;;;5072960;28;20100;-58
2023/07/25 03:44:36;;;;;;;3.63;1.85;;;;;;;;;;5072849;28;20052;-58
2023/07/25 03:47:02;;;;;;;3.33;1.92;;;;;;;;;;5073635;28;20378;-58
2023/07/25 03:49:28;;;;;;;3.25;1.85;;;;;;;;;;5073401;28;20043;-58
2023/07/25 03:51:54;;;;;;;3.17;2.10;;;;;;;;;;5075070;28;20020;-58
2023/07/25 03:54:23;;;;;;;2.92;2.33;;;;;;;;;;5076280;28;20062;-58
2023/07/25 03:56:49;;;;;;;2.42;1.55;;;;;;;;;;5076474;28;20036;-58
2023/07/25 03:59:15;;;;;;;7.35;2.60;;;;;;;;;;5076547;28;20021;-58
2023/07/25 04:01:44;;;;;;;3.50;1.85;;;;;;;;;;5076779;28;20115;-58
2023/07/25 04:04:10;;;;;;;2.80;1.50;;;;;;;;;;5076158;28;20059;-58
2023/07/25 04:06:38;;;;;;;4.75;1.67;;;;;;;;;;5076636;28;20095;-58
2023/07/25 04:09:04;;;;;;;3.03;1.90;;;;;;;;;;5076620;28;20028;-58
2023/07/25 04:11:29;;;;;;;2.30;1.30;;;;;;;;;;5076528;28;20433;-58
2023/07/25 04:13:55;;;;;;;2.92;1.52;;;;;;;;;;5076015;28;20096;-58
2023/07/25 04:16:22;;;;;;;2.80;1.58;;;;;;;;;;5076205;28;20020;-58
2023/07/25 04:18:48;;;;;;;3.92;2.22;;;;;;;;;;5076140;28;20037;-58
2023/07/25 04:21:14;;;;;;;2.72;1.70;;;;;;;;;;5076404;28;20024;-58
2023/07/25 04:23:40;;;;;;;3.88;1.92;;;;;;;;;;5075734;28;20028;-59
2023/07/25 04:26:06;;;;;;;2.13;1.50;;;;;;;;;;5075457;28;20424;-59
2023/07/25 04:28:32;;;;;;;2.33;1.45;;;;;;;;;;5075691;28;20032;-59
2023/07/25 04:30:58;;;;;;;2.53;1.55;;;;;;;;;;5075603;28;20024;-59
2023/07/25 04:33:24;;;;;;;4.22;2.10;;;;;;;;;;5075632;28;20012;-59
2023/07/25 04:35:50;;;;;;;3.33;2.15;;;;;;;;;;5075154;28;20397;-59
2023/07/25 04:38:18;;;;;;;2.47;1.92;;;;;;;;;;5076004;28;20028;-59
2023/07/25 04:40:44;;;;;;;6.18;2.03;;;;;;;;;;5076066;28;20021;-59
2023/07/25 04:43:11;;;;;;;3.22;2.08;;;;;;;;;;5075378;28;20070;-59
2023/07/25 04:45:37;;;;;;;3.53;2.40;;;;;;;;;;5075107;28;20481;-59
2023/07/25 04:48:03;;;;;;;4.85;2.58;;;;;;;;;;5075941;28;20028;-59
2023/07/25 04:50:29;;;;;;;3.78;2.53;;;;;;;;;;5074980;28;20458;-59
2023/07/25 04:52:55;;;;;;;3.08;2.28;;;;;;;;;;5074880;28;20025;-59
2023/07/25 04:55:21;;;;;;;4.15;2.80;;;;;;;;;;5075232;28;20416;-59
2023/07/25 04:57:49;;;;;;;3.15;1.77;;;;;;;;;;5075574;28;20099;-59
2023/07/25 05:00:15;;;;;;;2.88;2.20;;;;;;;;;;5075563;28;20029;-59
2023/07/25 05:02:41;;;;;;;4.90;1.95;;;;;;;;;;5075430;28;20023;-59
2023/07/25 05:05:07;;;;;;;3.03;2.38;;;;;;;;;;5074997;28;20017;-59
2023/07/25 05:07:33;;;;;;;3.40;2.40;;;;;;;;;;5075419;28;20028;-59
2023/07/25 05:09:59;;;;;;;3.42;1.80;;;;;;;;;;5074857;28;20023;-60
2023/07/25 05:12:25;;;;;;;2.92;2.08;;;;;;;;;;5075077;28;20024;-59
2023/07/25 05:14:51;;;;;;;3.17;2.13;;;;;;;;;;5074415;28;20025;-62
2023/07/25 05:17:17;;;;;;;3.72;2.63;;;;;;;;;;5074652;28;20032;-59
2023/07/25 05:19:43;;;;;;;3.15;2.38;;;;;;;;;;5075281;28;20021;-59
2023/07/25 05:22:09;;;;;;;3.40;2.45;;;;;;;;;;5074658;28;20147;-59
2023/07/25 05:24:35;;;;;;;3.78;2.70;;;;;;;;;;5074314;28;20055;-60
2023/07/25 05:27:01;;;;;;;3.45;2.38;;;;;;;;;;5075219;28;20123;-59
2023/07/25 05:29:26;;;;;;;3.85;2.80;;;;;;;;;;5075330;28;20031;-59
2023/07/25 05:31:52;;;;;;;4.28;2.75;;;;;;;;;;5074336;28;20021;-60
2023/07/25 05:34:18;;;;;;;3.28;2.50;;;;;;;;;;5074672;28;20106;-60
2023/07/25 05:36:44;;;;;;;3.10;2.13;;;;;;;;;;5074248;28;20052;-60
2023/07/25 05:39:10;;;;;;;6.05;2.63;;;;;;;;;;5074877;28;20366;-59
2023/07/25 05:41:38;;;;;;;4.10;2.55;;;;;;;;;;5074995;28;20017;-59
2023/07/25 05:44:04;;;;;;;6.30;2.83;;;;;;;;;;5074698;28;20016;-60
2023/07/25 05:46:30;;;;;;;3.42;2.38;;;;;;;;;;5074168;28;20032;-60
2023/07/25 05:48:56;;;;;;;5.38;2.83;;;;;;;;;;5073794;28;20025;-59
2023/07/25 05:51:22;;;;;;;5.10;2.38;;;;;;;;;;5074165;28;20082;-59
2023/07/25 05:53:48;;;;;;;3.90;2.42;;;;;;;;;;5074051;28;20107;-59
2023/07/25 05:56:13;;;;;;;4.40;3.10;;;;;;;;;;5074190;28;20017;-59
2023/07/25 05:58:40;;;;;;;3.47;2.67;;;;;;;;;;5074173;28;20055;-59
2023/07/25 06:01:07;;;;;;;3.30;2.55;;;;;;;;;;5074256;28;20021;-59
2023/07/25 06:03:33;;;;;;;3.38;2.40;;;;;;;;;;5073871;28;20040;-59
2023/07/25 06:05:59;;;;;;;3.78;2.78;;;;;;;;;;5073482;28;20063;-59
2023/07/25 06:08:24;;;;;;;2.78;1.90;;;;;;;;;;5073882;28;20020;-59
2023/07/25 06:10:50;;;;;;;3.35;2.47;;;;;;;;;;5056458;28;20043;-59
2023/07/25 06:13:16;;;;;;;3.80;2.80;;;;;;;;;;5072986;28;20017;-61
2023/07/25 06:15:42;;;;;;;3.70;2.40;;;;;;;;;;5074202;28;20052;-59
2023/07/25 06:18:08;;;;;;;3.83;2.75;;;;;;;;;;5073499;28;20031;-60
2023/07/25 06:20:38;;;;;;;3.00;2.17;;;;;;;;;;5073969;28;20056;-59
2023/07/25 06:23:04;;;;;;;4.82;3.15;;;;;;;;;;5074013;28;20046;-60
2023/07/25 06:25:30;;;;;;;3.47;2.92;;;;;;;;;;5073301;28;20024;-60
2023/07/25 06:27:56;;;;;;;5.32;2.80;;;;;;;;;;5073567;28;20032;-59
2023/07/25 06:30:22;;;;;;;3.92;2.55;;;;;;;;;;5073990;28;20357;-59
2023/07/25 06:32:48;;;;;;;3.28;2.60;;;;;;;;;;5073622;28;20112;-60
2023/07/25 06:35:14;;;;;;;3.83;2.78;;;;;;;;;;5073760;28;20020;-60
2023/07/25 06:37:40;;;;;;;4.05;2.92;;;;;;;;;;5073963;28;20426;-60
2023/07/25 06:40:06;;;;;;;2.75;2.40;;;;;;;;;;5074128;28;20112;-60
2023/07/25 06:42:32;;;;;;;5.15;2.78;;;;;;;;;;5073251;28;20025;-60
2023/07/25 06:44:58;;;;;;;3.38;2.38;;;;;;;;;;5073458;28;20067;-60
2023/07/25 06:47:24;;;;;;;3.65;2.47;;;;;;;;;;5073117;28;20075;-60
2023/07/25 06:49:50;;;;;;;3.60;2.17;;;;;;;;;;5073995;28;20367;-60
2023/07/25 06:52:16;;;;;;;4.05;2.38;;;;;;;;;;5073482;28;20024;-60
2023/07/25 06:55:19;;;;;;;3.50;2.35;;;;;;;;;;5073542;28;20021;-60
2023/07/25 06:57:46;;;;;;;4.65;2.40;;;;;;;;;;5066618;28;20075;-60
2023/07/25 07:00:12;;;;;;;3.60;2.58;;;;;;;;;;5073646;28;20020;-60
2023/07/25 07:02:38;;;;;;;3.97;2.70;;;;;;;;;;5073295;28;20056;-60
2023/07/25 07:05:04;;;;;;;3.50;2.55;;;;;;;;;;5074064;28;20056;-60
2023/07/25 07:07:30;;;;;;;4.88;2.17;;;;;;;;;;5073233;28;20146;-60
2023/07/25 07:09:56;;;;;;;3.50;2.40;;;;;;;;;;5073454;28;20099;-60
2023/07/25 07:12:22;;;;;;;4.72;2.22;;;;;;;;;;5072906;28;20484;-60
2023/07/25 07:14:48;;;;;;;3.83;2.75;;;;;;;;;;5073008;28;20021;-60
2023/07/25 07:17:14;;;;;;;3.70;2.30;;;;;;;;;;5073010;28;20128;-60
2023/07/25 07:19:40;;;;;;;2.80;1.88;;;;;;;;;;5073687;28;20032;-60
2023/07/25 07:22:06;;;;;;;14.20;3.35;;;;;;;;;;5073099;28;20361;-60
2023/07/25 07:24:32;;;;;;;5.03;2.47;;;;;;;;;;5073868;28;20447;-61
2023/07/25 07:26:57;;;;;;;3.97;2.50;;;;;;;;;;5075761;28;20462;-60
2023/07/25 07:29:23;;;;;;;5.38;3.45;;;;;;;;;;5076911;28;20366;-60
2023/07/25 07:31:49;;;;;;;5.45;2.72;;;;;;;;;;5077047;28;20024;-60
2023/07/25 07:34:16;;;;;;;2.92;2.40;;;;;;;;;;5059563;28;20392;-60
2023/07/25 07:36:43;;;;;;;6.15;2.78;;;;;;;;;;5076309;28;20084;-60
2023/07/25 07:39:09;;;;;;;4.95;2.58;;;;;;;;;;5076521;28;20025;-60
2023/07/25 07:41:35;;;;;;;3.22;2.72;;;;;;;;;;5076627;28;20158;-60
2023/07/25 07:44:01;;;;;;;3.65;2.65;;;;;;;;;;5076559;28;20017;-61
2023/07/25 07:46:56;;;;;;;3.25;2.25;;;;;;;;;;5076659;28;20479;-58
2023/07/25 07:49:22;;;;;;;4.45;2.47;;;;;;;;;;5058812;28;20039;-59
2023/07/25 07:51:48;;;;;;;3.47;2.60;;;;;;;;;;5076682;28;20021;-59
2023/07/25 07:54:14;;;;;;;3.65;2.40;;;;;;;;;;5076454;28;20374;-59
2023/07/25 07:56:40;;;;;;;4.03;2.60;;;;;;;;;;5076028;28;20527;-59
2023/07/25 07:59:06;;;;;;;4.50;2.55;;;;;;;;;;5076260;28;20037;-59
2023/07/25 08:01:32;;;;;;;3.92;2.50;;;;;;;;;;5075994;28;20139;-59
2023/07/25 08:03:58;;;;;;;3.13;1.95;;;;;;;;;;5075994;28;20103;-59
2023/07/25 08:06:24;;;;;;;2.65;1.88;;;;;;;;;;5075872;28;20050;-59
2023/07/25 08:08:50;;;;;;;3.65;2.53;;;;;;;;;;5076579;28;20048;-59
2023/07/25 08:11:16;;;;;;;3.85;2.55;;;;;;;;;;5076417;28;20020;-59
2023/07/25 08:13:42;;;;;;;3.60;2.20;;;;;;;;;;5076237;28;20044;-59
2023/07/25 08:16:08;;;;;;;2.90;2.08;;;;;;;;;;5076287;28;20028;-59
2023/07/25 08:18:34;;;;;;;2.53;1.73;;;;;;;;;;5076456;28;20446;-59
2023/07/25 08:21:01;;;;;;;2.45;1.80;;;;;;;;;;5076042;28;20107;-59
2023/07/25 08:23:27;;;;;;;3.42;1.85;;;;;;;;;;5075864;28;20028;-59
2023/07/25 08:25:56;;;;;;;3.47;1.83;;;;;;;;;;5076180;28;20027;-59
2023/07/25 08:28:22;;;;;;;3.65;1.60;;;;;;;;;;5075704;28;20028;-59
2023/07/25 08:30:48;;;;;;;2.70;1.60;;;;;;;;;;5076108;28;20028;-59
2023/07/25 08:33:19;;;;;;;2.60;1.60;;;;;;;;;;5076035;28;20020;-59
2023/07/25 08:35:47;;;;;;;3.63;1.63;;;;;;;;;;5076067;28;20021;-59
2023/07/25 08:38:13;;;;;;;2.60;1.48;;;;;;;;;;5075907;28;20048;-59
2023/07/25 08:40:39;;;;;;;2.50;1.65;;;;;;;;;;5076274;28;20025;-59
2023/07/25 08:43:09;;;;;;;4.53;1.40;;;;;;;;;;5075465;28;20012;-59
2023/07/25 08:45:35;;;;;;;2.38;1.63;;;;;;;;;;5075415;28;20095;-59
2023/07/25 08:48:04;;;;;;;3.90;1.73;;;;;;;;;;5075901;28;20044;-59
2023/07/25 08:50:31;;;;;;;2.53;1.73;;;;;;;;;;5075904;28;20032;-59
2023/07/25 08:52:57;;;;;;;3.40;1.92;;;;;;;;;;5075819;28;20021;-59
2023/07/25 08:55:23;;;;;;;2.60;1.88;;;;;;;;;;5075204;28;20029;-59
2023/07/25 08:57:51;;;;;;;2.70;1.65;;;;;;;;;;5074739;28;20537;-59
2023/07/25 09:00:17;;;;;;;2.85;1.80;;;;;;;;;;5076018;28;20187;-59
2023/07/25 09:02:43;;;;;;;5.65;1.90;;;;;;;;;;5075083;28;20095;-59
2023/07/25 09:05:09;;;;;;;4.18;1.90;;;;;;;;;;5074717;28;20031;-60
2023/07/25 09:07:35;;;;;;;2.85;1.73;;;;;;;;;;5074945;28;20055;-59
2023/07/25 09:10:01;;;;;;;2.28;1.38;;;;;;;;;;5075458;28;20454;-59
2023/07/25 09:12:27;;;;;;;2.30;1.73;;;;;;;;;;5075299;28;20527;-59
2023/07/25 09:14:53;;;;;;;2.63;1.38;;;;;;;;;;5075347;28;20031;-59
2023/07/25 09:17:20;;;;;;;2.15;0.90;;;;;;;;;;5074617;28;20094;-60
2023/07/25 09:19:47;;;;;;;2.20;1.13;;;;;;;;;;5075332;28;20021;-59
2023/07/25 09:22:27;;;;;;;2.40;1.45;;;;;;;;;;5074965;28;20017;-59
2023/07/25 09:24:53;;;;;;;2.53;1.33;;;;;;;;;;5074648;28;20512;-59
2023/07/25 09:27:19;;;;;;;1.60;0.90;;;;;;;;;;5075032;28;20044;-59
2023/07/25 09:29:46;;;;;;;8.85;1.38;;;;;;;;;;5074540;28;20021;-59
2023/07/25 09:32:21;;;;;;;1.80;1.00;;;;;;;;;;5074751;28;20538;-59
2023/07/25 09:34:54;;;;;;;2.35;1.13;;;;;;;;;;5074385;28;20485;-59
2023/07/25 09:37:20;;;;;;;1.50;0.88;;;;;;;;;;5074151;28;20123;-59
2023/07/25 09:39:46;;;;;;;1.55;0.80;;;;;;;;;;5074790;28;20380;-59
2023/07/25 09:42:12;;;;;;;3.40;1.48;;;;;;;;;;5074097;28;20050;-59
2023/07/25 09:44:45;;;;;;;1.65;0.95;;;;;;;;;;5074296;28;20086;-59
2023/07/25 09:47:37;;;;;;;2.35;0.82;;;;;;;;;;5074525;28;20024;-59
2023/07/25 09:50:07;;;;;;;3.33;1.40;;;;;;;;;;5063128;28;20036;-59
2023/07/25 09:52:40;;;;;;;1.35;0.82;;;;;;;;;;5074152;28;20425;-59
2023/07/25 09:55:06;;;;;;;3.72;1.15;;;;;;;;;;5074047;28;20485;-59
2023/07/25 09:57:33;;;;;;;2.70;1.27;;;;;;;;;;5074816;28;20397;-59
2023/07/25 09:59:59;;;;;;;3.97;1.08;;;;;;;;;;5074236;28;20056;-59
2023/07/25 10:02:25;;;;;;;1.98;1.08;;;;;;;;;;5073959;28;20467;-59
2023/07/25 10:04:52;;;;;;;1.20;0.70;;;;;;;;;;5073922;28;20462;-59
2023/07/25 10:07:18;;;;;;;1.63;0.90;;;;;;;;;;5074139;28;20093;-59
2023/07/25 10:09:46;;;;;;;2.15;1.00;;;;;;;;;;5074339;28;20027;-59
2023/07/25 10:12:12;;;;;;;2.20;1.00;;;;;;;;;;5074274;28;20086;-59
2023/07/25 10:14:38;;;;;;;3.03;1.30;;;;;;;;;;5073724;28;20023;-59
2023/07/25 10:17:05;;;;;;;1.38;0.93;;;;;;;;;;5073982;28;20070;-59
2023/07/25 10:19:45;;;;;;;2.17;1.17;;;;;;;;;;5074508;28;20059;-59
2023/07/25 10:22:11;;;;;;;;;;;;;;;;;;5074693;28;20028;-59
2023/07/25 10:24:37;;;;;;;1.58;0.70;;;;;;;;;;5073334;28;19954;-59
2023/07/25 10:27:09;;;;;;;2.35;1.13;;;;;;;;;;5074021;28;20028;-59
2023/07/25 10:29:38;;;;;;;2.30;0.88;;;;;;;;;;5074435;28;20063;-59
2023/07/25 10:32:04;;;;;;;1.50;0.90;;;;;;;;;;5074035;28;20017;-59
2023/07/25 10:34:49;;;;;;;2.00;1.02;;;;;;;;;;5073501;28;20419;-59
2023/07/25 10:37:38;;;;;;;2.67;0.63;;;;;;;;;;5073418;28;20087;-59
2023/07/25 10:40:17;;;;;;;6.53;0.98;;;;;;;;;;5073997;28;20031;-59
2023/07/25 10:42:44;;;;;;;1.63;0.70;;;;;;;;;;5073363;28;20505;-59
2023/07/25 10:45:33;;;;;;;2.00;1.08;;;;;;;;;;5073064;28;20454;-59
2023/07/25 10:48:00;;;;;;;1.30;0.77;;;;;;;;;;5060850;28;20106;-59
2023/07/25 10:50:53;;;;;;;1.55;0.70;;;;;;;;;;5074031;28;20017;-59
2023/07/25 10:53:24;;;;;;;2.42;1.08;;;;;;;;;;5074120;28;20081;-59
2023/07/25 10:56:10;;;;;;;2.13;1.02;;;;;;;;;;5074155;28;20029;-60
2023/07/25 10:58:54;;;;;;;1.90;0.85;;;;;;;;;;5073353;28;20029;-60
2023/07/25 11:01:36;;;;;;;1.85;1.10;;;;;;;;;;5077234;28;20107;-59
2023/07/25 11:04:21;;;;;;;1.95;1.23;;;;;;;;;;5077484;28;20046;-60
2023/07/25 11:06:48;;;;;;;2.30;1.10;;;;;;;;;;5077249;28;20089;-60
2023/07/25 11:09:14;;;;;;;1.83;0.90;;;;;;;;;;5077186;28;20029;-60
2023/07/25 11:11:47;;;;;;;1.25;0.77;;;;;;;;;;5077464;28;20017;-60
2023/07/25 11:14:15;;;;;;;2.13;1.27;;;;;;;;;;5077245;28;20032;-60
2023/07/25 11:16:42;;;;;;;2.10;1.00;;;;;;;;;;5077593;28;20025;-60
2023/07/25 11:19:09;;;;;;;1.98;1.00;;;;;;;;;;5077276;28;20040;-60
2023/07/25 11:21:42;;;;;;;3.28;1.30;;;;;;;;;;5077032;28;20025;-60
2023/07/25 11:24:08;;;;;;;1.60;0.70;;;;;;;;;;5076710;28;20021;-61
2023/07/25 11:26:37;;;;;;;1.60;0.80;;;;;;;;;;5076809;28;20099;-60
2023/07/25 11:29:06;;;;;;;1.17;0.65;;;;;;;;;;5077662;28;20029;-59
2023/07/25 11:31:32;;;;;;;1.47;0.70;;;;;;;;;;5076857;28;20029;-59
2023/07/25 11:34:08;;;;;;;1.73;0.77;;;;;;;;;;5077285;28;20028;-59
2023/07/25 11:36:35;;;;;;;1.65;0.88;;;;;;;;;;5077096;28;20055;-60
2023/07/25 11:39:02;;;;;;;1.48;0.88;;;;;;;;;;5076655;28;20091;-60
2023/07/25 11:41:28;;;;;;;1.17;0.57;;;;;;;;;;5076640;28;20033;-60
2023/07/25 11:43:54;;;;;;;1.00;0.50;;;;;;;;;;5077100;28;20025;-60
2023/07/25 11:46:20;;;;;;;1.58;0.82;;;;;;;;;;5076614;28;20032;-60
2023/07/25 11:48:46;;;;;;;1.48;0.80;;;;;;;;;;5076425;28;20172;-60
2023/07/25 11:51:12;;;;;;;1.02;0.50;;;;;;;;;;5076053;28;20020;-59
2023/07/25 11:53:38;;;;;;;2.20;0.85;;;;;;;;;;5076863;28;20109;-60
2023/07/25 11:56:04;;;;;;;1.38;0.73;;;;;;;;;;5076302;28;20028;-60
2023/07/25 11:58:30;;;;;;;0.93;0.55;;;;;;;;;;5076175;28;20458;-59
2023/07/25 12:00:57;;;;;;;1.48;0.80;;;;;;;;;;5076155;28;20032;-60
2023/07/25 12:03:26;;;;;;;1.65;0.98;;;;;;;;;;5076660;28;20081;-60
2023/07/25 12:05:59;;;;;;;1.73;0.85;;;;;;;;;;5076093;28;20025;-60
2023/07/25 12:08:41;;;;;;;1.50;0.70;;;;;;;;;;5076838;28;20031;-60
2023/07/25 12:11:08;;;;;;;1.60;0.80;;;;;;;;;;5075620;28;20150;-60
2023/07/25 12:13:42;;;;;;;1.70;0.80;;;;;;;;;;5076129;28;20466;-60
2023/07/25 12:16:08;;;;;;;1.38;0.70;;;;;;;;;;5076324;28;20031;-59
2023/07/25 12:18:37;;;;;;;1.73;0.50;;;;;;;;;;5076024;28;20032;-59
2023/07/25 12:21:04;;;;;;;3.22;0.85;;;;;;;;;;5076249;28;20091;-59
2023/07/25 12:23:31;;;;;;;1.15;0.30;;;;;;;;;;5075783;28;20021;-59
2023/07/25 12:25:57;;;;;;;0.55;0.30;;;;;;;;;;5075424;28;20496;-59
2023/07/25 12:28:24;;;;;;;1.27;0.57;;;;;;;;;;5076130;28;20374;-59
2023/07/25 12:30:50;;;;;;;2.13;0.63;;;;;;;;;;5076489;28;20115;-59
2023/07/25 12:33:15;;;;;;;1.25;0.52;;;;;;;;;;5075839;28;20431;-59
2023/07/25 12:35:41;;;;;;;0.77;0.30;;;;;;;;;;5076085;28;20021;-59
2023/07/25 12:38:07;;;;;;;1.60;0.70;;;;;;;;;;5075107;28;20432;-59
2023/07/25 12:40:33;;;;;;;0.95;0.32;;;;;;;;;;5075341;28;20042;-59
2023/07/25 12:42:59;;;;;;;1.35;0.40;;;;;;;;;;5074979;28;20056;-61
2023/07/25 12:45:25;;;;;;;0.95;0.50;;;;;;;;;;5075725;28;20016;-60
2023/07/25 12:47:51;;;;;;;1.80;0.68;;;;;;;;;;5075225;28;20028;-60
2023/07/25 12:50:18;;;;;;;1.08;0.40;;;;;;;;;;5075578;28;20035;-60
2023/07/25 12:52:44;;;;;;;1.00;0.45;;;;;;;;;;5075755;28;20021;-60
2023/07/25 12:55:10;;;;;;;0.75;0.32;;;;;;;;;;5075227;28;20021;-60
2023/07/25 12:57:36;;;;;;;1.10;0.50;;;;;;;;;;5075020;28;20036;-60
2023/07/25 13:00:03;;;;;;;0.88;0.40;;;;;;;;;;5075798;28;20358;-60
2023/07/25 13:02:29;;;;;;;0.95;0.30;;;;;;;;;;5075533;28;20020;-60
2023/07/25 13:04:55;;;;;;;1.40;0.50;;;;;;;;;;5075227;28;20095;-60
2023/07/25 13:07:21;;;;;;;1.08;0.40;;;;;;;;;;5075183;28;20020;-60
2023/07/25 13:09:48;;;;;;;0.50;0.30;;;;;;;;;;5075081;28;20429;-60
2023/07/25 13:12:14;;;;;;;0.90;0.50;;;;;;;;;;5074818;28;20025;-60
2023/07/25 13:14:40;;;;;;;1.02;0.35;;;;;;;;;;5075148;28;20073;-60
2023/07/25 13:17:06;;;;;;;0.82;0.25;;;;;;;;;;5074390;28;20100;-60
2023/07/25 13:19:32;;;;;;;0.57;0.32;;;;;;;;;;5074681;28;20576;-60
2023/07/25 13:21:58;;;;;;;1.33;0.65;;;;;;;;;;5074123;28;20056;-60
2023/07/25 13:24:24;;;;;;;0.82;0.38;;;;;;;;;;5074699;28;20074;-60
2023/07/25 13:26:50;;;;;;;1.20;0.60;;;;;;;;;;5074254;28;20076;-60
2023/07/25 13:29:15;;;;;;;2.05;0.75;;;;;;;;;;5074073;28;20119;-60
2023/07/25 13:31:41;;;;;;;0.57;0.35;;;;;;;;;;5074764;28;20029;-60
2023/07/25 13:34:07;;;;;;;1.10;0.43;;;;;;;;;;5074920;28;20070;-60
2023/07/25 13:36:33;;;;;;;1.83;0.70;;;;;;;;;;5074139;28;20413;-60
2023/07/25 13:38:59;;;;;;;1.30;0.60;;;;;;;;;;5074733;28;20515;-60
2023/07/25 13:41:25;;;;;;;2.10;0.60;;;;;;;;;;5074260;28;20021;-60
2023/07/25 13:43:51;;;;;;;1.63;0.88;;;;;;;;;;5074607;28;20013;-59
2023/07/25 13:46:17;;;;;;;1.15;0.50;;;;;;;;;;5074206;28;20036;-59
2023/07/25 13:48:44;;;;;;;2.05;0.80;;;;;;;;;;5074261;28;20074;-60
2023/07/25 13:51:10;;;;;;;0.88;0.43;;;;;;;;;;5073947;28;20032;-60
2023/07/25 13:53:36;;;;;;;3.42;0.63;;;;;;;;;;5073973;28;20025;-59
2023/07/25 13:56:02;;;;;;;1.17;0.52;;;;;;;;;;5074567;28;20169;-59
2023/07/25 13:58:28;;;;;;;1.58;0.75;;;;;;;;;;5073830;28;20074;-59
2023/07/25 14:00:54;;;;;;;1.02;0.63;;;;;;;;;;5073943;28;20021;-60
2023/07/25 14:03:20;;;;;;;2.10;1.00;;;;;;;;;;5074710;28;20031;-60
2023/07/25 14:05:46;;;;;;;1.13;0.70;;;;;;;;;;5073789;28;20123;-60
2023/07/25 14:08:12;;;;;;;1.45;0.80;;;;;;;;;;5073842;28;20111;-59
2023/07/25 14:10:42;;;;;;;1.63;0.77;;;;;;;;;;5074352;28;20067;-60
2023/07/25 14:13:08;;;;;;;1.88;1.00;;;;;;;;;;5073638;28;20024;-60
2023/07/25 14:15:34;;;;;;;1.67;0.80;;;;;;;;;;5073717;28;20021;-60
2023/07/25 14:18:01;;;;;;;2.25;1.00;;;;;;;;;;5073336;28;20051;-60
2023/07/25 14:20:27;;;;;;;1.50;0.80;;;;;;;;;;5074233;28;20059;-60
2023/07/25 14:22:53;;;;;;;1.42;0.77;;;;;;;;;;5073642;28;20036;-60
2023/07/25 14:25:19;;;;;;;1.38;0.80;;;;;;;;;;5074074;28;20438;-60
2023/07/25 14:27:45;;;;;;;4.35;0.70;;;;;;;;;;5073537;28;20420;-59
2023/07/25 14:30:11;;;;;;;1.65;1.10;;;;;;;;;;5074053;28;20024;-60
2023/07/25 14:32:37;;;;;;;1.27;0.75;;;;;;;;;;5073919;28;20032;-60
2023/07/25 14:35:03;;;;;;;3.05;1.15;;;;;;;;;;5072967;28;20016;-60
2023/07/25 14:37:29;;;;;;;1.40;0.75;;;;;;;;;;5073941;28;20516;-60
2023/07/25 14:39:55;;;;;;;1.27;0.63;;;;;;;;;;5073951;28;20017;-60
2023/07/25 14:42:21;;;;;;;1.52;0.80;;;;;;;;;;5073443;28;20428;-60